sensor_id;sensor_type;location;lat;lon;timestamp;pressure;altitude;pressure_sealevel;temperature;humidity
43364;BME280;40636;52.424;-1.948;2022-12-18T00:01:13;100341.41;;;-1.41;100.00
43364;BME280;40636;52.424;-1.948;2022-12-18T00:03:40;100333.31;;;-1.41;100.00
43364;BME280;40636;52.424;-1.948;2022-12-18T00:06:08;100333.66;;;-1.44;100.00
43364;BME280;40636;52.424;-1.948;2022-12-18T00:08:35;100338.03;;;-1.43;100.00
43364;BME280;40636;52.424;-1.948;2022-12-18T00:11:09;100341.03;;;-1.46;100.00
43364;BME280;40636;52.424;-1.948;2022-12-18T00:13:36;100339.72;;;-1.42;100.00
43364;BME280;40636;52.424;-1.948;2022-12-18T00:16:06;100331.47;;;-1.49;100.00
43364;BME280;40636;52.424;-1.948;2022-12-18T00:18:33;100338.69;;;-1.49;100.00
43364;BME280;40636;52.424;-1.948;2022-12-18T00:21:02;100349.47;;;-1.49;100.00
43364;BME280;40636;52.424;-1.948;2022-12-18T00:23:30;100342.53;;;-1.52;100.00
43364;BME280;40636;52.424;-1.948;2022-12-18T00:26:06;100347.22;;;-1.62;100.00
43364;BME280;40636;52.424;-1.948;2022-12-18T00:28:33;100353.75;;;-1.65;100.00
43364;BME280;40636;52.424;-1.948;2022-12-18T00:31:13;100350.88;;;-1.71;100.00
43364;BME280;40636;52.424;-1.948;2022-12-18T00:33:41;100356.56;;;-1.74;100.00
43364;BME280;40636;52.424;-1.948;2022-12-18T00:36:19;100350.34;;;-1.75;100.00
43364;BME280;40636;52.424;-1.948;2022-12-18T00:38:47;100358.06;;;-1.80;100.00
43364;BME280;40636;52.424;-1.948;2022-12-18T00:41:15;100349.97;;;-1.88;100.00
43364;BME280;40636;52.424;-1.948;2022-12-18T00:44:06;100347.44;;;-1.90;100.00
43364;BME280;40636;52.424;-1.948;2022-12-18T00:46:34;100355.66;;;-1.91;100.00
43364;BME280;40636;52.424;-1.948;2022-12-18T00:49:00;100348.91;;;-1.95;100.00
43364;BME280;40636;52.424;-1.948;2022-12-18T00:51:27;100349.53;;;-2.01;100.00
43364;BME280;40636;52.424;-1.948;2022-12-18T00:53:54;100342.50;;;-2.02;100.00
43364;BME280;40636;52.424;-1.948;2022-12-18T00:56:20;100344.16;;;-2.01;100.00
43364;BME280;40636;52.424;-1.948;2022-12-18T00:58:47;100335.75;;;-2.07;100.00
43364;BME280;40636;52.424;-1.948;2022-12-18T01:01:14;100336.38;;;-2.13;100.00
43364;BME280;40636;52.424;-1.948;2022-12-18T01:03:41;100337.22;;;-2.12;100.00
43364;BME280;40636;52.424;-1.948;2022-12-18T01:06:10;100323.09;;;-2.14;100.00
43364;BME280;40636;52.424;-1.948;2022-12-18T01:08:38;100331.69;;;-2.11;100.00
43364;BME280;40636;52.424;-1.948;2022-12-18T01:11:10;100318.06;;;-2.09;100.00
43364;BME280;40636;52.424;-1.948;2022-12-18T01:13:38;100316.91;;;-2.07;100.00
43364;BME280;40636;52.424;-1.948;2022-12-18T01:16:06;100309.03;;;-2.00;100.00
43364;BME280;40636;52.424;-1.948;2022-12-18T01:18:33;100300.19;;;-1.92;100.00
43364;BME280;40636;52.424;-1.948;2022-12-18T01:21:00;100312.13;;;-1.87;100.00
43364;BME280;40636;52.424;-1.948;2022-12-18T01:23:26;100316.84;;;-1.89;100.00
43364;BME280;40636;52.424;-1.948;2022-12-18T01:25:53;100311.47;;;-1.89;100.00
43364;BME280;40636;52.424;-1.948;2022-12-18T01:28:20;100313.63;;;-1.92;100.00
43364;BME280;40636;52.424;-1.948;2022-12-18T01:30:46;100309.25;;;-1.93;100.00
43364;BME280;40636;52.424;-1.948;2022-12-18T01:33:13;100308.41;;;-1.94;100.00
43364;BME280;40636;52.424;-1.948;2022-12-18T01:35:41;100313.81;;;-1.94;100.00
43364;BME280;40636;52.424;-1.948;2022-12-18T01:38:08;100316.63;;;-1.95;100.00
43364;BME280;40636;52.424;-1.948;2022-12-18T01:40:35;100314.94;;;-1.96;100.00
43364;BME280;40636;52.424;-1.948;2022-12-18T01:43:02;100305.38;;;-1.99;100.00
43364;BME280;40636;52.424;-1.948;2022-12-18T01:45:30;100301.84;;;-1.99;100.00
43364;BME280;40636;52.424;-1.948;2022-12-18T01:48:06;100309.69;;;-2.06;100.00
43364;BME280;40636;52.424;-1.948;2022-12-18T01:53:17;100313.50;;;-2.17;100.00
43364;BME280;40636;52.424;-1.948;2022-12-18T01:55:49;100320.22;;;-2.21;100.00
43364;BME280;40636;52.424;-1.948;2022-12-18T01:58:18;100322.91;;;-2.21;100.00
43364;BME280;40636;52.424;-1.948;2022-12-18T02:00:45;100329.28;;;-2.22;100.00
43364;BME280;40636;52.424;-1.948;2022-12-18T02:03:13;100334.59;;;-2.30;100.00
43364;BME280;40636;52.424;-1.948;2022-12-18T02:08:37;100349.53;;;-2.27;100.00
43364;BME280;40636;52.424;-1.948;2022-12-18T02:14:23;100342.84;;;-2.23;100.00
43364;BME280;40636;52.424;-1.948;2022-12-18T02:17:14;100350.06;;;-2.24;100.00
43364;BME280;40636;52.424;-1.948;2022-12-18T02:19:52;100348.72;;;-2.28;100.00
43364;BME280;40636;52.424;-1.948;2022-12-18T02:22:44;100349.41;;;-2.26;100.00
43364;BME280;40636;52.424;-1.948;2022-12-18T02:27:49;100353.09;;;-2.27;100.00
43364;BME280;40636;52.424;-1.948;2022-12-18T02:30:17;100370.84;;;-2.34;100.00
43364;BME280;40636;52.424;-1.948;2022-12-18T02:32:50;100371.22;;;-2.29;100.00
43364;BME280;40636;52.424;-1.948;2022-12-18T02:35:24;100365.09;;;-2.39;100.00
43364;BME280;40636;52.424;-1.948;2022-12-18T02:37:53;100363.78;;;-2.35;100.00
43364;BME280;40636;52.424;-1.948;2022-12-18T02:40:22;100352.72;;;-2.32;100.00
43364;BME280;40636;52.424;-1.948;2022-12-18T02:42:50;100362.97;;;-2.27;100.00
43364;BME280;40636;52.424;-1.948;2022-12-18T02:45:16;100357.13;;;-2.23;100.00
43364;BME280;40636;52.424;-1.948;2022-12-18T02:47:46;100351.16;;;-2.17;100.00
43364;BME280;40636;52.424;-1.948;2022-12-18T02:50:34;100340.69;;;-2.20;100.00
43364;BME280;40636;52.424;-1.948;2022-12-18T02:53:17;100337.75;;;-2.09;100.00
43364;BME280;40636;52.424;-1.948;2022-12-18T03:01:18;100329.41;;;-1.97;100.00
43364;BME280;40636;52.424;-1.948;2022-12-18T03:03:51;100326.06;;;-1.91;100.00
43364;BME280;40636;52.424;-1.948;2022-12-18T03:06:23;100321.06;;;-1.86;100.00
43364;BME280;40636;52.424;-1.948;2022-12-18T03:08:56;100310.97;;;-1.84;100.00
43364;BME280;40636;52.424;-1.948;2022-12-18T03:11:26;100306.78;;;-1.79;100.00
43364;BME280;40636;52.424;-1.948;2022-12-18T03:14:13;100302.94;;;-1.76;100.00
43364;BME280;40636;52.424;-1.948;2022-12-18T03:16:43;100306.31;;;-1.74;100.00
43364;BME280;40636;52.424;-1.948;2022-12-18T03:19:15;100294.03;;;-1.76;100.00
43364;BME280;40636;52.424;-1.948;2022-12-18T03:21:46;100290.03;;;-1.72;100.00
43364;BME280;40636;52.424;-1.948;2022-12-18T03:24:15;100287.69;;;-1.67;100.00
43364;BME280;40636;52.424;-1.948;2022-12-18T03:26:46;100286.50;;;-1.65;100.00
43364;BME280;40636;52.424;-1.948;2022-12-18T03:29:40;100299.28;;;-1.67;100.00
43364;BME280;40636;52.424;-1.948;2022-12-18T03:32:16;100298.09;;;-1.64;100.00
43364;BME280;40636;52.424;-1.948;2022-12-18T03:34:46;100293.72;;;-1.65;100.00
43364;BME280;40636;52.424;-1.948;2022-12-18T03:37:17;100290.72;;;-1.62;100.00
43364;BME280;40636;52.424;-1.948;2022-12-18T03:39:43;100269.72;;;-1.59;100.00
43364;BME280;40636;52.424;-1.948;2022-12-18T03:42:29;100268.00;;;-1.60;100.00
43364;BME280;40636;52.424;-1.948;2022-12-18T03:45:10;100267.03;;;-1.59;100.00
43364;BME280;40636;52.424;-1.948;2022-12-18T03:47:56;100257.09;;;-1.58;100.00
43364;BME280;40636;52.424;-1.948;2022-12-18T03:50:52;100249.16;;;-1.60;100.00
43364;BME280;40636;52.424;-1.948;2022-12-18T03:53:58;100247.16;;;-1.66;100.00
43364;BME280;40636;52.424;-1.948;2022-12-18T03:56:18;100240.22;;;-1.68;100.00
43364;BME280;40636;52.424;-1.948;2022-12-18T03:58:46;100231.00;;;-1.66;100.00
43364;BME280;40636;52.424;-1.948;2022-12-18T04:01:16;100222.41;;;-1.69;100.00
43364;BME280;40636;52.424;-1.948;2022-12-18T04:03:46;100228.13;;;-1.64;100.00
43364;BME280;40636;52.424;-1.948;2022-12-18T04:06:15;100229.34;;;-1.59;100.00
43364;BME280;40636;52.424;-1.948;2022-12-18T04:08:43;100222.78;;;-1.56;100.00
43364;BME280;40636;52.424;-1.948;2022-12-18T04:11:11;100215.75;;;-1.49;100.00
43364;BME280;40636;52.424;-1.948;2022-12-18T04:13:39;100201.09;;;-1.46;100.00
43364;BME280;40636;52.424;-1.948;2022-12-18T04:16:06;100200.94;;;-1.45;100.00
43364;BME280;40636;52.424;-1.948;2022-12-18T04:18:33;100206.47;;;-1.46;100.00
43364;BME280;40636;52.424;-1.948;2022-12-18T04:21:00;100180.25;;;-1.44;100.00
43364;BME280;40636;52.424;-1.948;2022-12-18T04:23:27;100187.97;;;-1.41;100.00
43364;BME280;40636;52.424;-1.948;2022-12-18T04:25:54;100175.22;;;-1.39;100.00
43364;BME280;40636;52.424;-1.948;2022-12-18T04:28:21;100170.47;;;-1.37;100.00
43364;BME280;40636;52.424;-1.948;2022-12-18T04:30:48;100163.09;;;-1.35;100.00
43364;BME280;40636;52.424;-1.948;2022-12-18T04:33:15;100167.47;;;-1.34;100.00
43364;BME280;40636;52.424;-1.948;2022-12-18T04:35:44;100158.03;;;-1.38;100.00
43364;BME280;40636;52.424;-1.948;2022-12-18T04:38:11;100161.75;;;-1.39;100.00
43364;BME280;40636;52.424;-1.948;2022-12-18T04:40:38;100145.75;;;-1.33;100.00
43364;BME280;40636;52.424;-1.948;2022-12-18T04:43:06;100141.38;;;-1.34;100.00
43364;BME280;40636;52.424;-1.948;2022-12-18T04:45:33;100134.16;;;-1.33;100.00
43364;BME280;40636;52.424;-1.948;2022-12-18T04:48:00;100127.09;;;-1.34;100.00
43364;BME280;40636;52.424;-1.948;2022-12-18T04:50:28;100107.91;;;-1.31;100.00
43364;BME280;40636;52.424;-1.948;2022-12-18T04:52:55;100113.44;;;-1.33;100.00
43364;BME280;40636;52.424;-1.948;2022-12-18T04:55:22;100107.22;;;-1.33;100.00
43364;BME280;40636;52.424;-1.948;2022-12-18T04:57:51;100090.75;;;-1.30;100.00
43364;BME280;40636;52.424;-1.948;2022-12-18T05:00:18;100084.03;;;-1.34;100.00
43364;BME280;40636;52.424;-1.948;2022-12-18T05:02:45;100078.81;;;-1.36;100.00
43364;BME280;40636;52.424;-1.948;2022-12-18T05:05:12;100075.44;;;-1.38;100.00
43364;BME280;40636;52.424;-1.948;2022-12-18T05:07:38;100076.63;;;-1.40;100.00
43364;BME280;40636;52.424;-1.948;2022-12-18T05:10:07;100080.69;;;-1.36;100.00
43364;BME280;40636;52.424;-1.948;2022-12-18T05:12:35;100074.47;;;-1.45;100.00
43364;BME280;40636;52.424;-1.948;2022-12-18T05:15:22;100076.13;;;-1.44;100.00
43364;BME280;40636;52.424;-1.948;2022-12-18T05:17:49;100081.34;;;-1.42;100.00
43364;BME280;40636;52.424;-1.948;2022-12-18T05:20:16;100100.69;;;-1.39;100.00
43364;BME280;40636;52.424;-1.948;2022-12-18T05:22:42;100105.41;;;-1.41;100.00
43364;BME280;40636;52.424;-1.948;2022-12-18T05:25:09;100108.75;;;-1.39;100.00
43364;BME280;40636;52.424;-1.948;2022-12-18T05:27:36;100107.59;;;-1.36;100.00
43364;BME280;40636;52.424;-1.948;2022-12-18T05:30:03;100106.72;;;-1.37;100.00
43364;BME280;40636;52.424;-1.948;2022-12-18T05:32:29;100103.53;;;-1.32;100.00
43364;BME280;40636;52.424;-1.948;2022-12-18T05:34:56;100106.91;;;-1.30;100.00
43364;BME280;40636;52.424;-1.948;2022-12-18T05:37:23;100096.78;;;-1.20;100.00
43364;BME280;40636;52.424;-1.948;2022-12-18T05:39:50;100098.13;;;-1.24;100.00
43364;BME280;40636;52.424;-1.948;2022-12-18T05:42:16;100087.69;;;-1.19;100.00
43364;BME280;40636;52.424;-1.948;2022-12-18T05:44:43;100085.69;;;-1.17;100.00
43364;BME280;40636;52.424;-1.948;2022-12-18T05:47:10;100074.91;;;-1.17;100.00
43364;BME280;40636;52.424;-1.948;2022-12-18T05:49:37;100062.47;;;-1.18;100.00
43364;BME280;40636;52.424;-1.948;2022-12-18T05:52:04;100059.78;;;-1.18;100.00
43364;BME280;40636;52.424;-1.948;2022-12-18T05:54:30;100060.44;;;-1.16;100.00
43364;BME280;40636;52.424;-1.948;2022-12-18T05:56:57;100051.19;;;-1.13;100.00
43364;BME280;40636;52.424;-1.948;2022-12-18T05:59:24;100041.41;;;-1.14;100.00
43364;BME280;40636;52.424;-1.948;2022-12-18T06:01:51;100041.06;;;-1.11;100.00
43364;BME280;40636;52.424;-1.948;2022-12-18T06:04:18;100041.25;;;-1.13;100.00
43364;BME280;40636;52.424;-1.948;2022-12-18T06:06:44;100040.88;;;-1.10;100.00
43364;BME280;40636;52.424;-1.948;2022-12-18T06:09:11;100035.34;;;-1.08;100.00
43364;BME280;40636;52.424;-1.948;2022-12-18T06:11:38;100038.69;;;-1.06;100.00
43364;BME280;40636;52.424;-1.948;2022-12-18T06:14:06;100043.56;;;-1.02;100.00
43364;BME280;40636;52.424;-1.948;2022-12-18T06:16:32;100045.41;;;-1.02;100.00
43364;BME280;40636;52.424;-1.948;2022-12-18T06:19:00;100046.56;;;-0.96;100.00
43364;BME280;40636;52.424;-1.948;2022-12-18T06:21:28;100041.84;;;-0.94;100.00
43364;BME280;40636;52.424;-1.948;2022-12-18T06:23:55;100028.69;;;-0.89;100.00
43364;BME280;40636;52.424;-1.948;2022-12-18T06:26:23;100029.19;;;-0.86;100.00
43364;BME280;40636;52.424;-1.948;2022-12-18T06:28:53;100032.06;;;-0.87;100.00
43364;BME280;40636;52.424;-1.948;2022-12-18T06:31:20;100027.34;;;-0.85;100.00
43364;BME280;40636;52.424;-1.948;2022-12-18T06:33:47;100028.53;;;-0.88;100.00
43364;BME280;40636;52.424;-1.948;2022-12-18T06:36:14;100039.59;;;-0.83;100.00
43364;BME280;40636;52.424;-1.948;2022-12-18T06:38:42;100037.22;;;-0.78;100.00
43364;BME280;40636;52.424;-1.948;2022-12-18T06:41:15;100044.47;;;-0.78;100.00
43364;BME280;40636;52.424;-1.948;2022-12-18T06:43:43;100048.88;;;-0.77;100.00
43364;BME280;40636;52.424;-1.948;2022-12-18T06:46:10;100030.66;;;-0.75;100.00
43364;BME280;40636;52.424;-1.948;2022-12-18T06:48:38;100022.25;;;-0.72;100.00
43364;BME280;40636;52.424;-1.948;2022-12-18T06:51:04;100010.44;;;-0.71;100.00
43364;BME280;40636;52.424;-1.948;2022-12-18T06:53:32;99994.31;;;-0.79;100.00
43364;BME280;40636;52.424;-1.948;2022-12-18T06:56:03;99976.78;;;-0.75;100.00
43364;BME280;40636;52.424;-1.948;2022-12-18T06:58:35;99966.31;;;-0.70;100.00
43364;BME280;40636;52.424;-1.948;2022-12-18T07:01:04;99972.00;;;-0.65;100.00
43364;BME280;40636;52.424;-1.948;2022-12-18T07:03:31;99981.75;;;-0.64;100.00
43364;BME280;40636;52.424;-1.948;2022-12-18T07:05:58;99995.56;;;-0.59;100.00
43364;BME280;40636;52.424;-1.948;2022-12-18T07:08:25;99993.22;;;-0.62;100.00
43364;BME280;40636;52.424;-1.948;2022-12-18T07:10:52;99992.69;;;-0.57;100.00
43364;BME280;40636;52.424;-1.948;2022-12-18T07:13:22;100007.53;;;-0.61;100.00
43364;BME280;40636;52.424;-1.948;2022-12-18T07:15:49;100019.13;;;-0.61;100.00
43364;BME280;40636;52.424;-1.948;2022-12-18T07:18:16;100011.19;;;-0.54;100.00
43364;BME280;40636;52.424;-1.948;2022-12-18T07:20:42;100012.38;;;-0.57;100.00
43364;BME280;40636;52.424;-1.948;2022-12-18T07:23:09;99994.53;;;-0.58;100.00
43364;BME280;40636;52.424;-1.948;2022-12-18T07:25:36;100005.63;;;-0.53;100.00
43364;BME280;40636;52.424;-1.948;2022-12-18T07:28:03;100006.66;;;-0.54;100.00
43364;BME280;40636;52.424;-1.948;2022-12-18T07:30:30;99999.38;;;-0.53;100.00
43364;BME280;40636;52.424;-1.948;2022-12-18T07:32:57;100007.59;;;-0.46;100.00
43364;BME280;40636;52.424;-1.948;2022-12-18T07:35:23;100004.19;;;-0.40;100.00
43364;BME280;40636;52.424;-1.948;2022-12-18T07:37:51;100011.56;;;-0.34;100.00
43364;BME280;40636;52.424;-1.948;2022-12-18T07:40:17;100016.97;;;-0.34;100.00
43364;BME280;40636;52.424;-1.948;2022-12-18T07:42:44;100008.56;;;-0.39;100.00
43364;BME280;40636;52.424;-1.948;2022-12-18T07:45:11;100000.28;;;-0.38;100.00
43364;BME280;40636;52.424;-1.948;2022-12-18T07:47:38;100004.50;;;-0.35;100.00
43364;BME280;40636;52.424;-1.948;2022-12-18T07:50:05;100009.16;;;-0.29;100.00
43364;BME280;40636;52.424;-1.948;2022-12-18T07:52:32;100008.44;;;-0.23;100.00
43364;BME280;40636;52.424;-1.948;2022-12-18T07:54:59;100004.38;;;-0.19;100.00
43364;BME280;40636;52.424;-1.948;2022-12-18T07:57:26;100007.06;;;-0.19;100.00
43364;BME280;40636;52.424;-1.948;2022-12-18T08:00:13;100015.66;;;-0.15;100.00
43364;BME280;40636;52.424;-1.948;2022-12-18T08:02:40;100014.81;;;-0.16;100.00
43364;BME280;40636;52.424;-1.948;2022-12-18T08:05:07;100008.41;;;-0.15;100.00
43364;BME280;40636;52.424;-1.948;2022-12-18T08:07:34;100015.66;;;-0.15;100.00
43364;BME280;40636;52.424;-1.948;2022-12-18T08:10:01;100008.03;;;-0.12;100.00
43364;BME280;40636;52.424;-1.948;2022-12-18T08:12:29;100023.38;;;-0.12;100.00
43364;BME280;40636;52.424;-1.948;2022-12-18T08:14:56;100037.53;;;-0.10;100.00
43364;BME280;40636;52.424;-1.948;2022-12-18T08:17:23;100043.88;;;-0.03;100.00
43364;BME280;40636;52.424;-1.948;2022-12-18T08:19:49;100041.69;;;0.01;100.00
43364;BME280;40636;52.424;-1.948;2022-12-18T08:22:16;100032.75;;;0.00;100.00
43364;BME280;40636;52.424;-1.948;2022-12-18T08:24:42;100034.97;;;-0.04;100.00
43364;BME280;40636;52.424;-1.948;2022-12-18T08:27:09;100038.31;;;-0.02;100.00
43364;BME280;40636;52.424;-1.948;2022-12-18T08:29:55;100034.59;;;-0.01;100.00
43364;BME280;40636;52.424;-1.948;2022-12-18T08:32:22;100023.09;;;0.06;100.00
43364;BME280;40636;52.424;-1.948;2022-12-18T08:34:49;100024.75;;;0.07;100.00
43364;BME280;40636;52.424;-1.948;2022-12-18T08:37:16;100002.16;;;0.08;100.00
43364;BME280;40636;52.424;-1.948;2022-12-18T08:39:43;99988.19;;;0.04;100.00
43364;BME280;40636;52.424;-1.948;2022-12-18T08:42:09;99991.91;;;0.03;100.00
43364;BME280;40636;52.424;-1.948;2022-12-18T08:44:54;99972.84;;;0.05;100.00
43364;BME280;40636;52.424;-1.948;2022-12-18T08:47:21;99972.19;;;0.03;100.00
43364;BME280;40636;52.424;-1.948;2022-12-18T08:49:48;99965.59;;;0.05;100.00
43364;BME280;40636;52.424;-1.948;2022-12-18T08:52:14;99969.13;;;0.06;100.00
43364;BME280;40636;52.424;-1.948;2022-12-18T08:54:41;99962.72;;;0.07;100.00
43364;BME280;40636;52.424;-1.948;2022-12-18T08:57:08;99948.19;;;0.08;100.00
43364;BME280;40636;52.424;-1.948;2022-12-18T08:59:34;99956.56;;;0.13;100.00
43364;BME280;40636;52.424;-1.948;2022-12-18T09:02:01;99955.19;;;0.17;100.00
43364;BME280;40636;52.424;-1.948;2022-12-18T09:04:28;99946.63;;;0.13;100.00
43364;BME280;40636;52.424;-1.948;2022-12-18T09:06:55;99937.53;;;0.14;100.00
43364;BME280;40636;52.424;-1.948;2022-12-18T09:09:22;99951.28;;;0.19;100.00
43364;BME280;40636;52.424;-1.948;2022-12-18T09:11:48;99948.22;;;0.22;100.00
43364;BME280;40636;52.424;-1.948;2022-12-18T09:14:15;99940.31;;;0.21;100.00
43364;BME280;40636;52.424;-1.948;2022-12-18T09:16:42;99937.25;;;0.24;100.00
43364;BME280;40636;52.424;-1.948;2022-12-18T09:19:09;99931.19;;;0.22;100.00
43364;BME280;40636;52.424;-1.948;2022-12-18T09:21:36;99926.47;;;0.24;100.00
43364;BME280;40636;52.424;-1.948;2022-12-18T09:24:03;99910.56;;;0.29;100.00
43364;BME280;40636;52.424;-1.948;2022-12-18T09:26:34;99899.41;;;0.32;100.00
43364;BME280;40636;52.424;-1.948;2022-12-18T09:29:02;99890.44;;;0.32;100.00
43364;BME280;40636;52.424;-1.948;2022-12-18T09:31:29;99899.56;;;0.31;100.00
43364;BME280;40636;52.424;-1.948;2022-12-18T09:33:55;99888.97;;;0.29;100.00
43364;BME280;40636;52.424;-1.948;2022-12-18T09:36:23;99889.44;;;0.33;100.00
43364;BME280;40636;52.424;-1.948;2022-12-18T09:38:49;99885.91;;;0.32;100.00
43364;BME280;40636;52.424;-1.948;2022-12-18T09:46:44;99875.28;;;0.31;100.00
43364;BME280;40636;52.424;-1.948;2022-12-18T09:49:15;99858.59;;;0.27;100.00
43364;BME280;40636;52.424;-1.948;2022-12-18T09:51:49;99851.44;;;0.34;100.00
43364;BME280;40636;52.424;-1.948;2022-12-18T09:54:25;99830.06;;;0.33;100.00
43364;BME280;40636;52.424;-1.948;2022-12-18T09:56:54;99839.63;;;0.35;100.00
43364;BME280;40636;52.424;-1.948;2022-12-18T09:59:29;99835.53;;;0.39;100.00
43364;BME280;40636;52.424;-1.948;2022-12-18T10:01:57;99823.53;;;0.42;100.00
43364;BME280;40636;52.424;-1.948;2022-12-18T10:04:27;99811.91;;;0.41;100.00
43364;BME280;40636;52.424;-1.948;2022-12-18T10:07:00;99797.84;;;0.46;100.00
43364;BME280;40636;52.424;-1.948;2022-12-18T10:09:39;99801.16;;;0.48;100.00
43364;BME280;40636;52.424;-1.948;2022-12-18T10:12:43;99781.72;;;0.53;100.00
43364;BME280;40636;52.424;-1.948;2022-12-18T10:15:21;99792.50;;;0.53;100.00
43364;BME280;40636;52.424;-1.948;2022-12-18T10:20:58;99772.47;;;0.62;100.00
43364;BME280;40636;52.424;-1.948;2022-12-18T10:23:33;99771.44;;;0.63;100.00
43364;BME280;40636;52.424;-1.948;2022-12-18T10:26:10;99764.81;;;0.65;100.00
43364;BME280;40636;52.424;-1.948;2022-12-18T10:28:41;99760.25;;;0.66;100.00
43364;BME280;40636;52.424;-1.948;2022-12-18T10:31:23;99767.16;;;0.68;100.00
43364;BME280;40636;52.424;-1.948;2022-12-18T10:33:51;99753.06;;;0.73;100.00
43364;BME280;40636;52.424;-1.948;2022-12-18T10:36:23;99755.19;;;0.78;100.00
43364;BME280;40636;52.424;-1.948;2022-12-18T10:38:50;99752.94;;;0.81;100.00
43364;BME280;40636;52.424;-1.948;2022-12-18T10:43:47;99744.72;;;0.89;100.00
43364;BME280;40636;52.424;-1.948;2022-12-18T10:46:17;99752.44;;;0.92;100.00
43364;BME280;40636;52.424;-1.948;2022-12-18T10:51:30;99732.88;;;0.90;100.00
43364;BME280;40636;52.424;-1.948;2022-12-18T10:54:17;99722.72;;;0.92;100.00
43364;BME280;40636;52.424;-1.948;2022-12-18T10:56:45;99715.31;;;1.01;100.00
43364;BME280;40636;52.424;-1.948;2022-12-18T10:59:14;99703.97;;;0.91;100.00
43364;BME280;40636;52.424;-1.948;2022-12-18T11:01:59;99703.81;;;0.92;100.00
43364;BME280;40636;52.424;-1.948;2022-12-18T11:04:29;99701.88;;;0.86;100.00
43364;BME280;40636;52.424;-1.948;2022-12-18T11:07:07;99694.22;;;0.90;100.00
43364;BME280;40636;52.424;-1.948;2022-12-18T11:09:35;99691.59;;;0.96;100.00
43364;BME280;40636;52.424;-1.948;2022-12-18T11:12:18;99685.53;;;0.94;100.00
43364;BME280;40636;52.424;-1.948;2022-12-18T11:14:47;99682.81;;;0.94;100.00
43364;BME280;40636;52.424;-1.948;2022-12-18T11:17:29;99672.03;;;0.94;100.00
43364;BME280;40636;52.424;-1.948;2022-12-18T11:22:58;99676.66;;;1.00;100.00
43364;BME280;40636;52.424;-1.948;2022-12-18T11:25:26;99672.72;;;1.03;100.00
43364;BME280;40636;52.424;-1.948;2022-12-18T11:28:02;99656.13;;;1.06;100.00
43364;BME280;40636;52.424;-1.948;2022-12-18T11:30:35;99654.63;;;1.04;100.00
43364;BME280;40636;52.424;-1.948;2022-12-18T11:33:07;99642.13;;;0.96;100.00
43364;BME280;40636;52.424;-1.948;2022-12-18T11:38:17;99635.34;;;1.07;100.00
43364;BME280;40636;52.424;-1.948;2022-12-18T11:40:49;99645.91;;;1.01;100.00
43364;BME280;40636;52.424;-1.948;2022-12-18T11:43:31;99639.25;;;1.04;100.00
43364;BME280;40636;52.424;-1.948;2022-12-18T11:46:13;99628.66;;;1.02;100.00
43364;BME280;40636;52.424;-1.948;2022-12-18T11:49:03;99618.88;;;1.01;100.00
43364;BME280;40636;52.424;-1.948;2022-12-18T11:51:48;99605.00;;;1.05;100.00
43364;BME280;40636;52.424;-1.948;2022-12-18T11:54:16;99596.88;;;1.05;100.00
43364;BME280;40636;52.424;-1.948;2022-12-18T11:56:53;99597.75;;;1.12;100.00
43364;BME280;40636;52.424;-1.948;2022-12-18T12:04:56;99570.09;;;1.10;100.00
43364;BME280;40636;52.424;-1.948;2022-12-18T12:11:09;99561.78;;;1.11;100.00
43364;BME280;40636;52.424;-1.948;2022-12-18T12:14:10;99564.28;;;1.13;100.00
43364;BME280;40636;52.424;-1.948;2022-12-18T12:16:59;99549.16;;;1.18;100.00
43364;BME280;40636;52.424;-1.948;2022-12-18T12:19:49;99534.84;;;1.24;100.00
43364;BME280;40636;52.424;-1.948;2022-12-18T12:22:39;99532.56;;;1.28;100.00
43364;BME280;40636;52.424;-1.948;2022-12-18T12:25:33;99516.34;;;1.28;100.00
43364;BME280;40636;52.424;-1.948;2022-12-18T12:30:56;99522.00;;;1.33;100.00
43364;BME280;40636;52.424;-1.948;2022-12-18T12:33:47;99499.72;;;1.31;100.00
43364;BME280;40636;52.424;-1.948;2022-12-18T12:38:57;99487.25;;;1.30;100.00
43364;BME280;40636;52.424;-1.948;2022-12-18T12:41:31;99481.03;;;1.36;100.00
43364;BME280;40636;52.424;-1.948;2022-12-18T12:44:25;99475.44;;;1.38;100.00
43364;BME280;40636;52.424;-1.948;2022-12-18T12:46:56;99473.56;;;1.38;100.00
43364;BME280;40636;52.424;-1.948;2022-12-18T12:49:27;99473.16;;;1.41;100.00
43364;BME280;40636;52.424;-1.948;2022-12-18T12:52:11;99455.69;;;1.37;100.00
43364;BME280;40636;52.424;-1.948;2022-12-18T12:54:38;99458.16;;;1.39;100.00
43364;BME280;40636;52.424;-1.948;2022-12-18T12:57:13;99455.69;;;1.44;100.00
43364;BME280;40636;52.424;-1.948;2022-12-18T13:00:09;99448.41;;;1.44;100.00
43364;BME280;40636;52.424;-1.948;2022-12-18T13:03:01;99450.72;;;1.47;100.00
43364;BME280;40636;52.424;-1.948;2022-12-18T13:05:42;99447.41;;;1.45;100.00
43364;BME280;40636;52.424;-1.948;2022-12-18T13:08:12;99434.06;;;1.44;100.00
43364;BME280;40636;52.424;-1.948;2022-12-18T13:10:49;99429.91;;;1.48;100.00
43364;BME280;40636;52.424;-1.948;2022-12-18T13:13:52;99418.06;;;1.49;100.00
43364;BME280;40636;52.424;-1.948;2022-12-18T13:16:24;99407.66;;;1.52;100.00
43364;BME280;40636;52.424;-1.948;2022-12-18T13:18:56;99404.53;;;1.49;100.00
43364;BME280;40636;52.424;-1.948;2022-12-18T13:21:33;99388.13;;;1.50;100.00
43364;BME280;40636;52.424;-1.948;2022-12-18T13:24:24;99379.78;;;1.52;100.00
43364;BME280;40636;52.424;-1.948;2022-12-18T13:26:51;99368.38;;;1.50;100.00
43364;BME280;40636;52.424;-1.948;2022-12-18T13:29:50;99363.34;;;1.53;100.00
43364;BME280;40636;52.424;-1.948;2022-12-18T13:32:25;99358.38;;;1.57;100.00
43364;BME280;40636;52.424;-1.948;2022-12-18T13:37:53;99350.47;;;1.62;100.00
43364;BME280;40636;52.424;-1.948;2022-12-18T13:45:49;99335.09;;;1.69;100.00
43364;BME280;40636;52.424;-1.948;2022-12-18T13:48:21;99322.41;;;1.70;100.00
43364;BME280;40636;52.424;-1.948;2022-12-18T13:50:57;99307.41;;;1.74;100.00
43364;BME280;40636;52.424;-1.948;2022-12-18T13:53:32;99311.16;;;1.73;100.00
43364;BME280;40636;52.424;-1.948;2022-12-18T13:55:59;99298.25;;;1.75;100.00
43364;BME280;40636;52.424;-1.948;2022-12-18T13:58:26;99293.25;;;1.78;100.00